logo
Rechercher aéroport 
image banner adimage banner adimage banner ad
image banner ad

KSLI - Los Alamitos Aaf

Situé à Los Alamitos, United States

ICAO - SLI, IATA -

Données fournies par Airmate  

Information générale

Coordonnées: N33°47'24" W118°3'5"
Élévation : 35 feet MSL.
Variation magnétique : 12° East
Voir autres Aéroports à California

Données opérationnelles

Special qualification required
Heure actuelle UTC:
Heure actuelle locale:
Météo
METAR: KSLI 281210Z AUTO 00000KT 6SM BR SCT000 18/18 A2986 RMK AO2 SLP114 $
TAF: TAF KSLI 280500Z 2805/2911 VRB06KT 9999 SKC QNH2987INS TX29/2823Z TN20/2814Z
Voir NOTAMs / SUP AIP / TFR affectant cet aéroport [VIEW]
Fréquences de communication: [VIEW]

Pistes:

Identifiant RWYQFULongueur (ft)Largeur (ft)SurfaceLDA (ft)
04R7999200OTHER
22L7999200OTHER
04L5901150OTHER
22R5901150OTHER

Coordonnées de l'aéroport

Adresse: Los Alamitos United States

Vue satellite de KSLI